Time;durP1;ratioP1;P1;durP2;ratioP2;P2;SDS_P1;SDS_P2;PMS_P1;PMS_P2;Temp;Humidity;BMP_temperature;BMP_pressure;BME280_temperature;BME280_humidity;BME280_pressure;Samples;Min_cycle;Max_cycle;Signal;HPM_P1;HPM_P2
2021/12/10 00:02:05;;;;;;;;;;;;;;;;;;5058547;28;20037;-68
2021/12/10 00:04:32;;;;;;;;;;;;;;;;;;5050318;28;19928;-67
2021/12/10 00:06:59;;;;;;;;;;;;;;;;;;5057599;28;19932;-67
2021/12/10 00:09:26;;;;;;;;;;;;;;;;;;5051684;28;19928;-66
2021/12/10 00:11:53;;;;;;;;;;;;;;;;;;5053145;28;20363;-67
2021/12/10 00:14:20;;;;;;;;;;;;;;;;;;5053124;28;19924;-67
2021/12/10 00:16:47;;;;;;;;;;;;;;;;;;5053225;28;19932;-68
2021/12/10 00:19:26;;;;;;;;;;;;;;;;;;5057909;28;19935;-67
2021/12/10 00:21:53;;;;;;;;;;;;;;;;;;5050027;28;20024;-68
2021/12/10 00:24:24;;;;;;;;;;;;;;;;;;5057996;28;19925;-67
2021/12/10 00:26:50;;;;;;;;;;;;;;;;;;5046993;28;19926;-68
2021/12/10 00:29:18;;;;;;;;;;;;;;;;;;5052369;28;19936;-67
2021/12/10 00:31:48;;;;;;;;;;;;;;;;;;5050637;28;19932;-68
2021/12/10 00:34:15;;;;;;;;;;;;;;;;;;5046550;28;20303;-68
2021/12/10 00:36:42;;;;;;;;;;;;;;;;;;5046822;28;19925;-67
2021/12/10 00:39:09;;;;;;;;;;;;;;;;;;5043763;28;20275;-67
2021/12/10 00:41:36;;;;;;;;;;;;;;;;;;5042256;28;20548;-67
2021/12/10 00:44:03;;;;;;;;;;;;;;;;;;5043266;28;20309;-67
2021/12/10 00:46:30;;;;;;;;;;;;;;;;;;5043356;28;19925;-67
2021/12/10 00:48:57;;;;;;;;;;;;;;;;;;5042308;28;20998;-67
2021/12/10 00:51:24;;;;;;;;;;;;;;;;;;5046521;28;20304;-67
2021/12/10 00:53:52;;;;;;;;;;;;;;;;;;5045735;28;19931;-68
2021/12/10 00:56:19;;;;;;;;;;;;;;;;;;5040831;28;20408;-67
2021/12/10 00:58:46;;;;;;;;;;;;;;;;;;5044478;28;19925;-67
2021/12/10 01:01:13;;;;;;;;;;;;;;;;;;5041631;28;20458;-67
2021/12/10 01:03:40;;;;;;;;;;;;;;;;;;5043108;28;20012;-67
2021/12/10 01:06:07;;;;;;;;;;;;;;;;;;5050770;28;21592;-67
2021/12/10 01:08:34;;;;;;;;;;;;;;;;;;5045921;28;19931;-67
2021/12/10 01:11:01;;;;;;;;;;;;;;;;;;5046998;28;19974;-67
2021/12/10 01:13:32;;;;;;;;;;;;;;;;;;5046052;28;19933;-67
2021/12/10 01:16:14;;;;;;;;;;;;;;;;;;5036099;28;19925;-67
2021/12/10 01:24:17;;;;;;;;;;;;;;;;;;5046852;28;19951;-67
2021/12/10 01:26:58;;;;;;;;;;;;;;;;;;5040788;28;19961;-67
2021/12/10 01:29:24;;;;;;;;;;;;;;;;;;5039376;28;20020;-68
2021/12/10 01:31:51;;;;;;;;;;;;;;;;;;5039059;28;19947;-68
2021/12/10 01:34:18;;;;;;;;;;;;;;;;;;5035136;28;20218;-67
2021/12/10 01:36:45;;;;;;;;;;;;;;;;;;5038136;28;19935;-67
2021/12/10 01:39:13;;;;;;;;;;;;;;;;;;5037908;28;22191;-67
2021/12/10 01:41:41;;;;;;;;;;;;;;;;;;5041432;28;19932;-68
2021/12/10 01:44:16;;;;;;;;;;;;;;;;;;5038289;28;19925;-67
2021/12/10 01:46:43;;;;;;;;;;;;;;;;;;5039663;28;19925;-68
2021/12/10 01:49:12;;;;;;;;;;;;;;;;;;5044924;28;19932;-67
2021/12/10 01:51:39;;;;;;;;;;;;;;;;;;5049539;28;19929;-68
2021/12/10 01:54:06;;;;;;;;;;;;;;;;;;5047848;28;19947;-68
2021/12/10 01:56:33;;;;;;;;;;;;;;;;;;5042101;28;19925;-67
2021/12/10 01:59:00;;;;;;;;;;;;;;;;;;5043740;28;19925;-67
2021/12/10 02:01:28;;;;;;;;;;;;;;;;;;5049352;28;20406;-67
2021/12/10 02:03:54;;;;;;;;;;;;;;;;;;5046780;28;20556;-68
2021/12/10 02:06:21;;;;;;;;;;;;;;;;;;5046041;28;19925;-67
2021/12/10 02:08:49;;;;;;;;;;;;;;;;;;5049112;28;19925;-67
2021/12/10 02:11:16;;;;;;;;;;;;;;;;;;5044846;28;20020;-67
2021/12/10 02:13:43;;;;;;;;;;;;;;;;;;5051686;28;19932;-67
2021/12/10 02:16:10;;;;;;;;;;;;;;;;;;5052007;28;19968;-67
2021/12/10 02:18:37;;;;;;;;;;;;;;;;;;5045731;28;19935;-68
2021/12/10 02:21:04;;;;;;;;;;;;;;;;;;5043885;28;20379;-67
2021/12/10 02:23:32;;;;;;;;;;;;;;;;;;5043658;28;19925;-67
2021/12/10 02:26:01;;;;;;;;;;;;;;;;;;5041367;28;19929;-68
2021/12/10 02:28:27;;;;;;;;;;;;;;;;;;5046539;28;19972;-67
2021/12/10 02:30:56;;;;;;;;;;;;;;;;;;5049917;28;19925;-67
2021/12/10 02:33:22;;;;;;;;;;;;;;;;;;5042105;28;20298;-67
2021/12/10 02:35:49;;;;;;;;;;;;;;;;;;5040911;28;19925;-67
2021/12/10 02:38:18;;;;;;;;;;;;;;;;;;5044427;28;19925;-66
2021/12/10 02:40:45;;;;;;;;;;;;;;;;;;5044840;28;20304;-66
2021/12/10 02:43:12;;;;;;;;;;;;;;;;;;5045852;28;20260;-66
2021/12/10 02:45:39;;;;;;;;;;;;;;;;;;5042744;28;19932;-67
2021/12/10 02:48:06;;;;;;;;;;;;;;;;;;5043962;28;19932;-66
2021/12/10 02:50:33;;;;;;;;;;;;;;;;;;5052164;28;19935;-66
2021/12/10 02:53:00;;;;;;;;;;;;;;;;;;5048166;28;19929;-66
2021/12/10 02:55:27;;;;;;;;;;;;;;;;;;5043761;28;20024;-68
2021/12/10 02:57:54;;;;;;;;;;;;;;;;;;5043050;28;19931;-66
2021/12/10 03:00:21;;;;;;;;;;;;;;;;;;5050128;28;19935;-66
2021/12/10 03:02:48;;;;;;;;;;;;;;;;;;5042850;28;19925;-67
2021/12/10 03:05:15;;;;;;;;;;;;;;;;;;5042059;28;19928;-66
2021/12/10 03:07:42;;;;;;;;;;;;;;;;;;5051120;28;19933;-66
2021/12/10 03:10:09;;;;;;;;;;;;;;;;;;5045704;28;19932;-66
2021/12/10 03:12:36;;;;;;;;;;;;;;;;;;5046039;28;19971;-68
2021/12/10 03:15:03;;;;;;;;;;;;;;;;;;5049754;28;19947;-67
2021/12/10 03:17:30;;;;;;;;;;;;;;;;;;5043304;28;19925;-66
2021/12/10 03:19:56;;;;;;;;;;;;;;;;;;5045322;28;19939;-66
2021/12/10 03:22:24;;;;;;;;;;;;;;;;;;5043812;28;19926;-66
2021/12/10 03:24:52;;;;;;;;;;;;;;;;;;5043824;28;19928;-66
2021/12/10 03:27:19;;;;;;;;;;;;;;;;;;5042158;28;19928;-66
2021/12/10 03:29:46;;;;;;;;;;;;;;;;;;5049430;28;20298;-65
2021/12/10 03:32:13;;;;;;;;;;;;;;;;;;5037398;28;19925;-66
2021/12/10 03:34:40;;;;;;;;;;;;;;;;;;5043417;28;20286;-66
2021/12/10 03:37:07;;;;;;;;;;;;;;;;;;5039859;28;19976;-66
2021/12/10 03:39:34;;;;;;;;;;;;;;;;;;5044195;28;19924;-67
2021/12/10 03:42:01;;;;;;;;;;;;;;;;;;5041413;28;19933;-66
2021/12/10 03:44:28;;;;;;;;;;;;;;;;;;5044755;28;19925;-66
2021/12/10 03:46:55;;;;;;;;;;;;;;;;;;5044140;28;19931;-66
2021/12/10 03:49:22;;;;;;;;;;;;;;;;;;5042362;28;19932;-65
2021/12/10 03:51:49;;;;;;;;;;;;;;;;;;5049433;28;19924;-66
2021/12/10 03:54:17;;;;;;;;;;;;;;;;;;5045159;28;20311;-66
2021/12/10 03:56:44;;;;;;;;;;;;;;;;;;5048738;28;19929;-66
2021/12/10 03:59:11;;;;;;;;;;;;;;;;;;5044398;28;19925;-66
2021/12/10 04:01:38;;;;;;;;;;;;;;;;;;5045239;28;19932;-66
2021/12/10 04:04:05;;;;;;;;;;;;;;;;;;5051613;28;20011;-65
2021/12/10 04:06:32;;;;;;;;;;;;;;;;;;5046746;28;20225;-66
2021/12/10 04:08:59;;;;;;;;;;;;;;;;;;5047740;28;20396;-67
2021/12/10 04:11:26;;;;;;;;;;;;;;;;;;5035980;28;19929;-67
2021/12/10 04:13:53;;;;;;;;;;;;;;;;;;5042117;28;19925;-67
2021/12/10 04:16:20;;;;;;;;;;;;;;;;;;5045407;28;19924;-67
2021/12/10 04:18:47;;;;;;;;;;;;;;;;;;5047613;28;19932;-68
2021/12/10 04:21:14;;;;;;;;;;;;;;;;;;5044663;28;19931;-68
2021/12/10 04:23:42;;;;;;;;;;;;;;;;;;5047608;28;19968;-68
2021/12/10 04:26:08;;;;;;;;;;;;;;;;;;5045794;28;19929;-68
2021/12/10 04:28:35;;;;;;;;;;;;;;;;;;5044294;28;19932;-68
2021/12/10 04:31:02;;;;;;;;;;;;;;;;;;5048980;28;20177;-67
2021/12/10 04:33:29;;;;;;;;;;;;;;;;;;5045815;28;20486;-68
2021/12/10 04:35:56;;;;;;;;;;;;;;;;;;5040194;28;19935;-68
2021/12/10 04:38:23;;;;;;;;;;;;;;;;;;5045232;28;20385;-68
2021/12/10 04:40:50;;;;;;;;;;;;;;;;;;5045710;28;19947;-67
2021/12/10 04:43:17;;;;;;;;;;;;;;;;;;5045393;28;20298;-67
2021/12/10 04:45:44;;;;;;;;;;;;;;;;;;5048040;28;19929;-67
2021/12/10 04:48:11;;;;;;;;;;;;;;;;;;5042980;28;20012;-70
2021/12/10 04:50:38;;;;;;;;;;;;;;;;;;5043980;28;20031;-67
2021/12/10 04:53:05;;;;;;;;;;;;;;;;;;5045458;28;20277;-68
2021/12/10 04:55:32;;;;;;;;;;;;;;;;;;5074427;22;20336;-65
2021/12/10 04:57:59;;;;;;;;;;;;;;;;;;5082653;28;20305;-65
2021/12/10 05:00:26;;;;;;;;;;;;;;;;;;5082584;28;19931;-64
2021/12/10 05:02:53;;;;;;;;;;;;;;;;;;5089582;28;19933;-63
2021/12/10 05:05:20;;;;;;;;;;;;;;;;;;5084161;28;19928;-64
2021/12/10 05:07:47;;;;;;;;;;;;;;;;;;5081716;28;19924;-63
2021/12/10 05:10:14;;;;;;;;;;;;;;;;;;5090132;28;19924;-64
2021/12/10 05:12:41;;;;;;;;;;;;;;;;;;5083360;28;19925;-64
2021/12/10 05:15:08;;;;;;;;;;;;;;;;;;5083465;28;19925;-63
2021/12/10 05:17:35;;;;;;;;;;;;;;;;;;5089190;28;20011;-63
2021/12/10 05:20:03;;;;;;;;;;;;;;;;;;5082908;28;19931;-64
2021/12/10 05:22:30;;;;;;;;;;;;;;;;;;5089000;28;19924;-64
2021/12/10 05:24:57;;;;;;;;;;;;;;;;;;5081779;28;19925;-64
2021/12/10 05:27:23;;;;;;;;;;;;;;;;;;5082495;28;19947;-64
2021/12/10 05:29:50;;;;;;;;;;;;;;;;;;5083096;28;19931;-64
2021/12/10 05:32:17;;;;;;;;;;;;;;;;;;5075376;28;20095;-64
2021/12/10 05:34:44;;;;;;;;;;;;;;;;;;5088700;28;19931;-64
2021/12/10 05:37:13;;;;;;;;;;;;;;;;;;5090149;28;20300;-64
2021/12/10 05:39:40;;;;;;;;;;;;;;;;;;5084233;28;20007;-64
2021/12/10 05:42:07;;;;;;;;;;;;;;;;;;5078149;28;20301;-63
2021/12/10 05:44:34;;;;;;;;;;;;;;;;;;5088237;28;19924;-66
2021/12/10 05:47:01;;;;;;;;;;;;;;;;;;5089836;28;20011;-63
2021/12/10 05:49:28;;;;;;;;;;;;;;;;;;5084049;28;20032;-63
2021/12/10 05:51:55;;;;;;;;;;;;;;;;;;5083462;28;19924;-63
2021/12/10 05:54:22;;;;;;;;;;;;;;;;;;5091446;28;19930;-63
2021/12/10 05:56:49;;;;;;;;;;;;;;;;;;5090184;28;19954;-63
2021/12/10 05:59:16;;;;;;;;;;;;;;;;;;5084831;28;19925;-64
2021/12/10 06:01:44;;;;;;;;;;;;;;;;;;5080303;28;19924;-64
2021/12/10 06:04:10;;;;;;;;;;;;;;;;;;5085334;28;19924;-64
2021/12/10 06:06:37;;;;;;;;;;;;;;;;;;5085026;28;19931;-63
2021/12/10 06:09:04;;;;;;;;;;;;;;;;;;5086365;28;19924;-63
2021/12/10 06:11:31;;;;;;;;;;;;;;;;;;5083280;28;19924;-63
2021/12/10 06:13:58;;;;;;;;;;;;;;;;;;5078303;28;19928;-63
2021/12/10 06:16:25;;;;;;;;;;;;;;;;;;5082300;28;19946;-63
2021/12/10 06:18:52;;;;;;;;;;;;;;;;;;5089031;28;19931;-64
2021/12/10 06:21:19;;;;;;;;;;;;;;;;;;5082227;28;19939;-63
2021/12/10 06:23:46;;;;;;;;;;;;;;;;;;5079791;28;19935;-65
2021/12/10 06:26:13;;;;;;;;;;;;;;;;;;5083361;28;19931;-64
2021/12/10 06:28:44;;;;;;;;;;;;;;;;;;5088301;28;19924;-63
2021/12/10 06:31:11;;;;;;;;;;;;;;;;;;5072565;28;19929;-63
2021/12/10 06:33:38;;;;;;;;;;;;;;;;;;5081623;28;19924;-63
2021/12/10 06:36:05;;;;;;;;;;;;;;;;;;5085250;28;20345;-63
2021/12/10 06:38:32;;;;;;;;;;;;;;;;;;5089471;28;19924;-63
2021/12/10 06:40:59;;;;;;;;;;;;;;;;;;5074737;28;19929;-63
2021/12/10 06:43:26;;;;;;;;;;;;;;;;;;5086064;28;19930;-63
2021/12/10 06:45:53;;;;;;;;;;;;;;;;;;5080830;28;19924;-63
2021/12/10 06:48:20;;;;;;;;;;;;;;;;;;5085454;28;20370;-64
2021/12/10 06:50:47;;;;;;;;;;;;;;;;;;5084406;28;19924;-64
2021/12/10 06:53:14;;;;;;;;;;;;;;;;;;5086145;28;19935;-63
2021/12/10 06:55:41;;;;;;;;;;;;;;;;;;5083575;28;19930;-63
2021/12/10 06:58:08;;;;;;;;;;;;;;;;;;5086658;28;19928;-64
2021/12/10 07:00:36;;;;;;;;;;;;;;;;;;5088943;28;21532;-63
2021/12/10 07:03:03;;;;;;;;;;;;;;;;;;5073045;28;19931;-64
2021/12/10 07:05:30;;;;;;;;;;;;;;;;;;5088316;28;19931;-64
2021/12/10 07:07:57;;;;;;;;;;;;;;;;;;5082413;28;19924;-64
2021/12/10 07:10:24;;;;;;;;;;;;;;;;;;5087479;28;19932;-64
2021/12/10 07:12:52;;;;;;;;;;;;;;;;;;5084521;28;19931;-63
2021/12/10 07:15:19;;;;;;;;;;;;;;;;;;5089028;28;19985;-64
2021/12/10 07:17:46;;;;;;;;;;;;;;;;;;5084199;28;19934;-65
2021/12/10 07:20:13;;;;;;;;;;;;;;;;;;5088929;28;19931;-64
2021/12/10 07:22:40;;;;;;;;;;;;;;;;;;5081295;28;19933;-65
2021/12/10 07:25:07;;;;;;;;;;;;;;;;;;5086280;28;19924;-65
2021/12/10 07:27:34;;;;;;;;;;;;;;;;;;5074888;28;20389;-65
2021/12/10 07:30:01;;;;;;;;;;;;;;;;;;5084200;28;20305;-65
2021/12/10 07:32:28;;;;;;;;;;;;;;;;;;5080697;28;19924;-65
2021/12/10 07:34:54;;;;;;;;;;;;;;;;;;5084645;28;19928;-65
2021/12/10 07:37:22;;;;;;;;;;;;;;;;;;5085985;28;19924;-65
2021/12/10 07:39:48;;;;;;;;;;;;;;;;;;5086298;28;19924;-65
2021/12/10 07:42:15;;;;;;;;;;;;;;;;;;5084776;28;19928;-64
2021/12/10 07:44:42;;;;;;;;;;;;;;;;;;5078045;28;19927;-65
2021/12/10 07:47:13;;;;;;;;;;;;;;;;;;5079626;28;19929;-65
2021/12/10 07:49:40;;;;;;;;;;;;;;;;;;5079983;28;20019;-64
2021/12/10 07:52:08;;;;;;;;;;;;;;;;;;5081262;28;20147;-64
2021/12/10 07:54:35;;;;;;;;;;;;;;;;;;5082901;28;20399;-65
2021/12/10 07:57:02;;;;;;;;;;;;;;;;;;5083298;28;20377;-64
2021/12/10 07:59:29;;;;;;;;;;;;;;;;;;5081399;28;20365;-63
2021/12/10 08:01:56;;;;;;;;;;;;;;;;;;5077599;28;20285;-64
2021/12/10 08:04:23;;;;;;;;;;;;;;;;;;5073968;28;19946;-65
2021/12/10 08:06:50;;;;;;;;;;;;;;;;;;5078909;28;19928;-64
2021/12/10 08:09:17;;;;;;;;;;;;;;;;;;5085446;28;19924;-65
2021/12/10 08:11:44;;;;;;;;;;;;;;;;;;5084749;28;19931;-64
2021/12/10 08:14:11;;;;;;;;;;;;;;;;;;5086506;28;19924;-64
2021/12/10 08:16:39;;;;;;;;;;;;;;;;;;5081678;28;20023;-64
2021/12/10 08:19:06;;;;;;;;;;;;;;;;;;5083936;28;20441;-66
2021/12/10 08:21:33;;;;;;;;;;;;;;;;;;5082955;28;20301;-64
2021/12/10 08:24:00;;;;;;;;;;;;;;;;;;5084754;28;19928;-66
2021/12/10 08:26:27;;;;;;;;;;;;;;;;;;5071230;28;19932;-65
2021/12/10 08:28:54;;;;;;;;;;;;;;;;;;5078853;28;20086;-65
2021/12/10 08:31:21;;;;;;;;;;;;;;;;;;5077327;28;19924;-65
2021/12/10 08:33:49;;;;;;;;;;;;;;;;;;5081765;28;19924;-65
2021/12/10 08:36:16;;;;;;;;;;;;;;;;;;5083963;28;20294;-66
2021/12/10 08:38:43;;;;;;;;;;;;;;;;;;5074262;28;19925;-68
2021/12/10 08:41:10;;;;;;;;;;;;;;;;;;5082084;28;19932;-66
2021/12/10 08:43:37;;;;;;;;;;;;;;;;;;5081487;28;20025;-69
2021/12/10 08:46:04;;;;;;;;;;;;;;;;;;5077928;28;19982;-69
2021/12/10 08:48:31;;;;;;;;;;;;;;;;;;5077410;28;20393;-69
2021/12/10 08:50:58;;;;;;;;;;;;;;;;;;5076947;28;20026;-70
2021/12/10 08:53:25;;;;;;;;;;;;;;;;;;5079164;28;19928;-69
2021/12/10 08:55:52;;;;;;;;;;;;;;;;;;5079974;28;19965;-67
2021/12/10 08:58:19;;;;;;;;;;;;;;;;;;5078672;28;19924;-69
2021/12/10 09:00:46;;;;;;;;;;;;;;;;;;5081614;28;20455;-68
2021/12/10 09:03:13;;;;;;;;;;;;;;;;;;5081188;28;19974;-69
2021/12/10 09:05:40;;;;;;;;;;;;;;;;;;5078657;28;20269;-69
2021/12/10 09:08:07;;;;;;;;;;;;;;;;;;5079506;28;19932;-68
2021/12/10 09:10:34;;;;;;;;;;;;;;;;;;5078368;28;19924;-68
2021/12/10 09:13:01;;;;;;;;;;;;;;;;;;5084061;28;20385;-69
2021/12/10 09:15:29;;;;;;;;;;;;;;;;;;5077451;28;19985;-67
2021/12/10 09:17:58;;;;;;;;;;;;;;;;;;5083343;28;19931;-68
2021/12/10 09:20:25;;;;;;;;;;;;;;;;;;5072353;28;20385;-65
2021/12/10 09:22:53;;;;;;;;;;;;;;;;;;5079549;28;19932;-66
2021/12/10 09:25:20;;;;;;;;;;;;;;;;;;5071769;28;19939;-66
2021/12/10 09:27:47;;;;;;;;;;;;;;;;;;5071424;28;20420;-65
2021/12/10 09:30:14;;;;;;;;;;;;;;;;;;5081679;28;19951;-66
2021/12/10 09:32:41;;;;;;;;;;;;;;;;;;5083380;28;20032;-66
2021/12/10 09:35:08;;;;;;;;;;;;;;;;;;5081764;28;19933;-66
2021/12/10 09:37:34;;;;;;;;;;;;;;;;;;5085416;28;19924;-64
2021/12/10 09:40:01;;;;;;;;;;;;;;;;;;5083821;28;19931;-65
2021/12/10 09:42:28;;;;;;;;;;;;;;;;;;5082526;28;19924;-66
2021/12/10 09:44:55;;;;;;;;;;;;;;;;;;5083450;28;20377;-65
2021/12/10 09:47:22;;;;;;;;;;;;;;;;;;5082006;28;19932;-66
2021/12/10 09:49:49;;;;;;;;;;;;;;;;;;5080345;28;19924;-65
2021/12/10 09:52:16;;;;;;;;;;;;;;;;;;5080438;28;19928;-66
2021/12/10 09:54:43;;;;;;;;;;;;;;;;;;5083840;28;19925;-66
2021/12/10 09:57:10;;;;;;;;;;;;;;;;;;5083550;28;20282;-65
2021/12/10 09:59:37;;;;;;;;;;;;;;;;;;5084389;28;19925;-65
2021/12/10 10:02:04;;;;;;;;;;;;;;;;;;5079064;28;19943;-66
2021/12/10 10:04:34;;;;;;;;;;;;;;;;;;5079407;28;19928;-66
2021/12/10 10:07:01;;;;;;;;;;;;;;;;;;5077923;28;19932;-65
2021/12/10 10:09:28;;;;;;;;;;;;;;;;;;5084585;28;20009;-65
2021/12/10 10:11:55;;;;;;;;;;;;;;;;;;5086553;28;20042;-66
2021/12/10 10:14:22;;;;;;;;;;;;;;;;;;5084872;28;19947;-65
2021/12/10 10:16:48;;;;;;;;;;;;;;;;;;5084900;28;19924;-65
2021/12/10 10:19:15;;;;;;;;;;;;;;;;;;5080235;28;19935;-66
2021/12/10 10:21:42;;;;;;;;;;;;;;;;;;5085361;28;19931;-66
2021/12/10 10:24:09;;;;;;;;;;;;;;;;;;5089692;28;20378;-66
2021/12/10 10:26:36;;;;;;;;;;;;;;;;;;5082193;28;19928;-66
2021/12/10 10:29:03;;;;;;;;;;;;;;;;;;5080457;28;19931;-65
2021/12/10 10:31:30;;;;;;;;;;;;;;;;;;5088967;28;19935;-66
2021/12/10 10:33:57;;;;;;;;;;;;;;;;;;5084430;28;20299;-65
2021/12/10 10:36:24;;;;;;;;;;;;;;;;;;5086877;28;20308;-66
2021/12/10 10:38:51;;;;;;;;;;;;;;;;;;5079394;28;19951;-66
2021/12/10 10:41:18;;;;;;;;;;;;;;;;;;5086287;28;20335;-66
2021/12/10 10:43:45;;;;;;;;;;;;;;;;;;5084790;28;19931;-65
2021/12/10 10:46:12;;;;;;;;;;;;;;;;;;5083490;28;19928;-66
2021/12/10 10:48:39;;;;;;;;;;;;;;;;;;5081551;28;19924;-66
2021/12/10 10:51:07;;;;;;;;;;;;;;;;;;5085118;28;20088;-66
2021/12/10 10:53:34;;;;;;;;;;;;;;;;;;5085364;28;19928;-66
2021/12/10 10:56:01;;;;;;;;;;;;;;;;;;5102785;22;19928;-67
2021/12/10 10:58:30;;;;;;;;;;;;;;;;;;5083817;28;19931;-68
2021/12/10 11:01:02;;;;;;;;;;;;;;;;;;5086105;28;19925;-69
2021/12/10 11:03:35;;;;;;;;;;;;;;;;;;5084019;28;19947;-65
2021/12/10 11:06:02;;;;;;;;;;;;;;;;;;5085119;28;19928;-67
2021/12/10 11:08:29;;;;;;;;;;;;;;;;;;5085451;28;19924;-67
2021/12/10 11:10:58;;;;;;;;;;;;;;;;;;5079890;28;19924;-68
2021/12/10 11:13:27;;;;;;;;;;;;;;;;;;5079951;28;19924;-71
2021/12/10 11:15:53;;;;;;;;;;;;;;;;;;5084174;28;19931;-69
2021/12/10 11:18:21;;;;;;;;;;;;;;;;;;5082249;28;19924;-68
2021/12/10 11:20:47;;;;;;;;;;;;;;;;;;5085018;28;19946;-69
2021/12/10 11:23:16;;;;;;;;;;;;;;;;;;5080997;28;19932;-69
2021/12/10 11:25:43;;;;;;;;;;;;;;;;;;5084897;28;19928;-70
2021/12/10 11:28:10;;;;;;;;;;;;;;;;;;5084716;28;19971;-68
2021/12/10 11:30:37;;;;;;;;;;;;;;;;;;5084648;28;20032;-67
2021/12/10 11:33:04;;;;;;;;;;;;;;;;;;5082651;28;19932;-67
2021/12/10 11:35:31;;;;;;;;;;;;;;;;;;5083889;28;19928;-68
2021/12/10 11:37:58;;;;;;;;;;;;;;;;;;5083174;28;19932;-67
2021/12/10 11:40:25;;;;;;;;;;;;;;;;;;5084900;28;19924;-68
2021/12/10 11:42:57;;;;;;;;;;;;;;;;;;5085003;28;20014;-70
2021/12/10 11:45:31;;;;;;;;;;;;;;;;;;5085751;28;19931;-70
2021/12/10 11:48:05;;;;;;;;;;;;;;;;;;5081851;28;20279;-68
2021/12/10 11:50:32;;;;;;;;;;;;;;;;;;5081826;28;19928;-68
2021/12/10 11:52:59;;;;;;;;;;;;;;;;;;5081751;28;19924;-69
2021/12/10 11:55:26;;;;;;;;;;;;;;;;;;5085422;28;19934;-71
2021/12/10 11:57:53;;;;;;;;;;;;;;;;;;5083837;28;19928;-65
2021/12/10 12:00:20;;;;;;;;;;;;;;;;;;5081711;28;19924;-69
2021/12/10 12:02:47;;;;;;;;;;;;;;;;;;5082283;28;19935;-68
2021/12/10 12:05:14;;;;;;;;;;;;;;;;;;5083778;28;19924;-69
2021/12/10 12:07:41;;;;;;;;;;;;;;;;;;5081514;28;19924;-68
2021/12/10 12:10:08;;;;;;;;;;;;;;;;;;5085166;28;20407;-69
2021/12/10 12:12:37;;;;;;;;;;;;;;;;;;5082758;28;19931;-68
2021/12/10 12:15:04;;;;;;;;;;;;;;;;;;5085652;28;19963;-69
2021/12/10 12:17:31;;;;;;;;;;;;;;;;;;5083747;28;19934;-68
2021/12/10 12:19:58;;;;;;;;;;;;;;;;;;5076844;28;20245;-68
2021/12/10 12:25:10;;;;;;;;;;;;;;;;;;5085006;28;20023;-68
2021/12/10 12:27:37;;;;;;;;;;;;;;;;;;5078152;28;19924;-68
2021/12/10 12:30:06;;;;;;;;;;;;;;;;;;5080732;28;19928;-69
2021/12/10 12:32:34;;;;;;;;;;;;;;;;;;5079441;28;20409;-69
2021/12/10 12:35:02;;;;;;;;;;;;;;;;;;5083345;28;20011;-69
2021/12/10 12:37:29;;;;;;;;;;;;;;;;;;5079822;28;19971;-69
2021/12/10 12:39:56;;;;;;;;;;;;;;;;;;5084280;28;20373;-72
2021/12/10 12:42:23;;;;;;;;;;;;;;;;;;5082877;28;19928;-69
2021/12/10 12:44:50;;;;;;;;;;;;;;;;;;5084683;28;19925;-68
2021/12/10 12:47:17;;;;;;;;;;;;;;;;;;5078595;28;19982;-69
2021/12/10 12:49:44;;;;;;;;;;;;;;;;;;5078801;28;19931;-69
2021/12/10 12:52:11;;;;;;;;;;;;;;;;;;5079373;28;19932;-69
2021/12/10 12:54:38;;;;;;;;;;;;;;;;;;5083561;28;19924;-69
2021/12/10 12:57:05;;;;;;;;;;;;;;;;;;5079914;28;20270;-68
2021/12/10 12:59:32;;;;;;;;;;;;;;;;;;5081656;28;19925;-68
2021/12/10 13:01:59;;;;;;;;;;;;;;;;;;5080885;28;20489;-69
2021/12/10 13:04:26;;;;;;;;;;;;;;;;;;5081187;28;19931;-69
2021/12/10 13:06:54;;;;;;;;;;;;;;;;;;5082924;28;19932;-71
2021/12/10 13:09:21;;;;;;;;;;;;;;;;;;5082263;28;19932;-69
2021/12/10 13:11:53;;;;;;;;;;;;;;;;;;5085438;28;19935;-68
2021/12/10 13:14:22;;;;;;;;;;;;;;;;;;5081917;28;19924;-68
2021/12/10 13:16:49;;;;;;;;;;;;;;;;;;5084877;28;19925;-69
2021/12/10 13:19:16;;;;;;;;;;;;;;;;;;5081521;28;19935;-69
2021/12/10 13:21:43;;;;;;;;;;;;;;;;;;5085796;28;19928;-70
2021/12/10 13:24:12;;;;;;;;;;;;;;;;;;5083592;28;19924;-69
2021/12/10 13:26:38;;;;;;;;;;;;;;;;;;5082492;28;20024;-66
2021/12/10 13:29:05;;;;;;;;;;;;;;;;;;5081872;28;20382;-70
2021/12/10 13:31:32;;;;;;;;;;;;;;;;;;5083242;28;19935;-67
2021/12/10 13:33:59;;;;;;;;;;;;;;;;;;5082474;28;19928;-69
2021/12/10 13:36:26;;;;;;;;;;;;;;;;;;5083356;28;20297;-70
2021/12/10 13:38:53;;;;;;;;;;;;;;;;;;5081800;28;19928;-68
2021/12/10 13:41:20;;;;;;;;;;;;;;;;;;5080471;28;19924;-69
2021/12/10 13:43:47;;;;;;;;;;;;;;;;;;5083653;28;19936;-69
2021/12/10 13:46:14;;;;;;;;;;;;;;;;;;5085351;28;19932;-70
2021/12/10 13:48:42;;;;;;;;;;;;;;;;;;5089347;28;19925;-69
2021/12/10 13:51:09;;;;;;;;;;;;;;;;;;5086864;28;19928;-68
2021/12/10 13:53:36;;;;;;;;;;;;;;;;;;5084079;28;19925;-67
2021/12/10 13:56:04;;;;;;;;;;;;;;;;;;5084541;28;19931;-67
2021/12/10 13:58:33;;;;;;;;;;;;;;;;;;5087519;28;20300;-68
2021/12/10 14:01:00;;;;;;;;;;;;;;;;;;5086247;28;20068;-68
2021/12/10 14:03:27;;;;;;;;;;;;;;;;;;5087007;28;19924;-69
2021/12/10 14:05:54;;;;;;;;;;;;;;;;;;5082970;28;19989;-68
2021/12/10 14:08:21;;;;;;;;;;;;;;;;;;5085395;28;19924;-68
2021/12/10 14:10:51;;;;;;;;;;;;;;;;;;5088133;28;19959;-69
2021/12/10 14:13:18;;;;;;;;;;;;;;;;;;5083842;28;19924;-68
2021/12/10 14:15:48;;;;;;;;;;;;;;;;;;5085375;28;20305;-68
2021/12/10 14:18:16;;;;;;;;;;;;;;;;;;5085007;28;20003;-67
2021/12/10 14:20:44;;;;;;;;;;;;;;;;;;5086446;28;19924;-68
2021/12/10 14:23:13;;;;;;;;;;;;;;;;;;5082918;28;19963;-68
2021/12/10 14:25:41;;;;;;;;;;;;;;;;;;5084815;28;20374;-66
2021/12/10 14:28:08;;;;;;;;;;;;;;;;;;5085094;28;19924;-68
2021/12/10 14:30:35;;;;;;;;;;;;;;;;;;5088370;28;19924;-68
2021/12/10 14:33:02;;;;;;;;;;;;;;;;;;5088310;28;19935;-68
2021/12/10 14:35:29;;;;;;;;;;;;;;;;;;5084089;28;19924;-68
2021/12/10 14:37:56;;;;;;;;;;;;;;;;;;5086382;28;19925;-70
2021/12/10 14:40:23;;;;;;;;;;;;;;;;;;5081233;28;20325;-69
2021/12/10 14:42:50;;;;;;;;;;;;;;;;;;5088387;28;20300;-69
2021/12/10 14:45:17;;;;;;;;;;;;;;;;;;5083454;28;19932;-69
2021/12/10 14:47:46;;;;;;;;;;;;;;;;;;5084376;28;19986;-69
2021/12/10 14:50:15;;;;;;;;;;;;;;;;;;5080929;28;20386;-70
2021/12/10 14:52:43;;;;;;;;;;;;;;;;;;5086037;28;20297;-67
2021/12/10 14:55:12;;;;;;;;;;;;;;;;;;5086656;28;19924;-69
2021/12/10 14:57:39;;;;;;;;;;;;;;;;;;5085076;28;19932;-69
2021/12/10 15:00:06;;;;;;;;;;;;;;;;;;5083999;28;20484;-68
2021/12/10 15:02:35;;;;;;;;;;;3.70;99.90;;;;;;5089110;28;20384;-68
2021/12/10 15:05:05;;;;;;;;;;;3.90;99.90;;;;;;5085549;28;20397;-69
2021/12/10 15:07:32;;;;;;;;;;;3.90;99.90;;;;;;5084369;28;19932;-68
2021/12/10 15:10:07;;;;;;;;;;;3.80;99.90;;;;;;5087493;28;19934;-69
2021/12/10 15:12:51;;;;;;;;;;;3.80;99.90;;;;;;5084755;28;19932;-68
2021/12/10 15:15:18;;;;;;;;;;;3.70;99.90;;;;;;5089436;28;19924;-67
2021/12/10 15:17:46;;;;;;;;;;;3.70;99.90;;;;;;5085593;28;19924;-68
2021/12/10 15:20:24;;;;;;;;;;;3.70;99.90;;;;;;5086621;28;20377;-69
2021/12/10 15:22:51;;;;;;;;;;;3.70;99.90;;;;;;5083100;28;19928;-68
2021/12/10 15:25:22;;;;;;;;;;;3.70;99.90;;;;;;5085617;28;20019;-68
2021/12/10 15:27:49;;;;;;;;;;;3.70;99.90;;;;;;5081365;28;19958;-69
2021/12/10 15:30:17;;;;;;;;;;;3.60;99.90;;;;;;5082018;28;20516;-68
2021/12/10 15:32:45;;;;;;;;;;;3.60;99.90;;;;;;5084958;28;19928;-68
2021/12/10 15:35:15;;;;;;;;;;;3.70;99.90;;;;;;5086396;28;19928;-68
2021/12/10 15:37:44;;;;;;;;;;;3.60;99.90;;;;;;5082561;28;19924;-68
2021/12/10 15:40:13;;;;;;;;;;;3.60;99.90;;;;;;5082741;28;20289;-67
2021/12/10 15:42:40;;;;;;;;;;;3.60;99.90;;;;;;5088119;28;19924;-69
2021/12/10 15:45:10;;;;;;;;;;;3.60;99.90;;;;;;5082694;28;20396;-68
2021/12/10 15:47:37;;;;;;;;;;;3.50;99.90;;;;;;5083657;28;19979;-68
2021/12/10 15:50:06;;;;;;;;;;;3.50;99.90;;;;;;5083766;28;19928;-67
2021/12/10 15:52:35;;;;;;;;;;;3.50;99.90;;;;;;5084288;28;19960;-69
2021/12/10 15:55:02;;;;;;;;;;;3.50;99.90;;;;;;5084165;28;19934;-70
2021/12/10 15:57:32;;;;;;;;;;;3.40;99.90;;;;;;5083382;28;19930;-70
2021/12/10 16:00:01;;;;;;;;;;;3.40;99.90;;;;;;5083422;28;19924;-69
2021/12/10 16:02:29;;;;;;;;;;;3.40;99.90;;;;;;5081784;28;20392;-71
2021/12/10 16:04:58;;;;;;;;;;;3.40;99.90;;;;;;5083886;28;19931;-70
2021/12/10 16:07:30;;;;;;;;;;;3.40;99.90;;;;;;5081058;28;19928;-69
2021/12/10 16:10:01;;;;;;;;;;;3.40;99.90;;;;;;5084167;28;19970;-68
2021/12/10 16:12:29;;;;;;;;;;;3.50;99.90;;;;;;5084619;28;19932;-69
2021/12/10 16:14:57;;;;;;;;;;;3.50;99.90;;;;;;5083590;28;20018;-68
2021/12/10 16:17:25;;;;;;;;;;;3.40;99.90;;;;;;5081770;28;20296;-69
2021/12/10 16:19:53;;;;;;;;;;;3.40;99.90;;;;;;5082320;28;19931;-69
2021/12/10 16:22:22;;;;;;;;;;;3.40;99.90;;;;;;5078577;28;19932;-68
2021/12/10 16:24:50;;;;;;;;;;;3.50;99.90;;;;;;5087724;28;19930;-68
2021/12/10 16:27:22;;;;;;;;;;;3.40;99.90;;;;;;5084924;28;20023;-68
2021/12/10 16:29:50;;;;;;;;;;;3.30;99.90;;;;;;5086934;28;19924;-68
2021/12/10 16:32:19;;;;;;;;;;;3.40;99.90;;;;;;5084430;28;19928;-68
2021/12/10 16:34:46;;;;;;;;;;;3.30;99.90;;;;;;5080699;28;19972;-68
2021/12/10 16:37:13;;;;;;;;;;;3.40;99.90;;;;;;5084892;28;19924;-68
2021/12/10 16:39:41;;;;;;;;;;;3.30;99.90;;;;;;5081905;28;19930;-67